Time;durP1;ratioP1;P1;durP2;ratioP2;P2;SDS_P1;SDS_P2;PMS_P1;PMS_P2;Temp;Humidity;BMP_temperature;BMP_pressure;BME280_temperature;BME280_humidity;BME280_pressure;Samples;Min_cycle;Max_cycle;Signal;HPM_P1;HPM_P2
2022/06/18 00:01:46;;;;;;;2.30;2.10;;;21.70;57.70;22.20;97162.00;;;;5093457;28;20214;-84
2022/06/18 00:04:17;;;;;;;2.30;2.10;;;21.60;57.80;22.20;97161.00;;;;5093010;28;20186;-85
2022/06/18 00:06:54;;;;;;;2.83;2.20;;;21.60;57.90;22.10;97160.00;;;;5092568;28;20535;-84
2022/06/18 00:09:25;;;;;;;1.90;1.80;;;21.50;58.20;22.10;97150.00;;;;5092200;28;20210;-84
2022/06/18 00:14:40;;;;;;;2.27;2.07;;;21.40;58.20;22.00;97151.00;;;;5092393;28;20297;-85
2022/06/18 00:17:14;;;;;;;4.07;2.40;;;21.40;58.30;22.00;97161.00;;;;5095093;28;20198;-85
2022/06/18 00:19:45;;;;;;;1.93;1.83;;;21.40;58.60;21.90;97162.00;;;;5094419;28;20715;-85
2022/06/18 00:22:15;;;;;;;1.77;1.67;;;21.30;58.60;21.90;97167.00;;;;5087876;28;20250;-85
2022/06/18 00:24:44;;;;;;;2.47;2.00;;;21.30;58.70;21.90;97161.00;;;;5084643;28;20200;-85
2022/06/18 00:27:12;;;;;;;2.10;2.00;;;21.30;58.90;21.90;97163.00;;;;5091464;28;20201;-85
2022/06/18 00:29:40;;;;;;;2.40;2.00;;;21.30;59.50;21.90;97164.00;;;;5091302;28;20222;-85
2022/06/18 00:32:09;;;;;;;1.87;1.77;;;21.30;59.00;21.90;97158.00;;;;5087939;28;20200;-86
2022/06/18 00:34:37;;;;;;;1.93;1.83;;;21.30;59.00;21.80;97157.00;;;;5094074;28;20244;-85
2022/06/18 00:37:06;;;;;;;2.43;2.27;;;21.20;58.90;21.80;97151.00;;;;5095503;28;20195;-85
2022/06/18 00:39:34;;;;;;;2.30;2.10;;;21.20;58.90;21.80;97150.00;;;;5096366;28;20244;-85
2022/06/18 00:42:21;;;;;;;2.10;2.00;;;21.20;58.90;21.70;97151.00;;;;5091018;28;20206;-86
2022/06/18 00:44:54;;;;;;;2.10;2.00;;;21.20;59.20;21.70;97142.00;;;;5095441;28;20199;-85
2022/06/18 00:47:37;;;;;;;2.20;2.00;;;21.10;58.90;21.60;97145.00;;;;5094934;28;20260;-85
2022/06/18 00:50:20;;;;;;;2.57;1.90;;;21.10;59.30;21.60;97155.00;;;;5076758;28;20206;-85
2022/06/18 00:53:02;;;;;;;2.50;1.87;;;21.00;59.10;21.60;97156.00;;;;5095600;28;20218;-85
2022/06/18 00:55:43;;;;;;;2.40;2.20;;;21.00;59.20;21.50;97164.00;;;;5090808;28;20201;-85
2022/06/18 00:58:24;;;;;;;1.93;1.83;;;21.00;59.40;21.50;97160.00;;;;5083758;28;20216;-85
2022/06/18 01:00:52;;;;;;;2.00;1.90;;;20.90;59.30;21.50;97161.00;;;;5087086;28;20198;-85
2022/06/18 01:03:32;;;;;;;2.00;1.90;;;20.90;59.40;21.40;97159.00;;;;5087238;28;20204;-85
2022/06/18 01:06:10;;;;;;;2.07;1.97;;;20.90;59.60;21.40;97147.00;;;;5088496;28;20199;-85
2022/06/18 01:08:40;;;;;;;2.00;1.90;;;20.80;59.50;21.40;97158.00;;;;5092457;28;20223;-86
2022/06/18 01:11:17;;;;;;;4.03;2.10;;;20.80;59.50;21.40;97152.00;;;;5095263;28;20203;-86
2022/06/18 01:13:45;;;;;;;2.00;1.90;;;20.80;59.50;21.30;97151.00;;;;5092399;28;20230;-86
2022/06/18 01:16:13;;;;;;;3.30;1.90;;;20.70;59.40;21.30;97145.00;;;;5093144;28;20199;-86
2022/06/18 01:18:44;;;;;;;3.63;2.10;;;20.70;59.50;21.30;97154.00;;;;5092991;28;20269;-86
2022/06/18 01:21:30;;;;;;;1.70;1.60;;;20.70;59.60;21.20;97155.00;;;;5093533;28;20219;-86
2022/06/18 01:24:08;;;;;;;1.90;1.80;;;20.70;59.70;21.20;97159.00;;;;5081223;28;20195;-86
2022/06/18 01:26:37;;;;;;;1.73;1.63;;;20.60;59.50;21.10;97154.00;;;;5091941;28;20233;-86
2022/06/18 01:29:05;;;;;;;1.90;1.80;;;20.60;59.50;21.10;97157.00;;;;5093615;28;20237;-86
2022/06/18 01:31:33;;;;;;;1.90;1.80;;;20.50;59.60;21.00;97151.00;;;;5094481;28;20273;-86
2022/06/18 01:34:03;;;;;;;1.93;1.83;;;20.50;59.60;21.00;97147.00;;;;5094603;28;20359;-86
2022/06/18 01:36:38;;;;;;;2.40;1.80;;;20.50;59.80;21.00;97154.00;;;;5093485;28;20226;-86
2022/06/18 01:39:13;;;;;;;1.80;1.70;;;20.40;59.90;20.90;97151.00;;;;5089195;22;20225;-82
2022/06/18 01:41:53;;;;;;;2.00;1.90;;;20.40;60.10;20.90;97151.00;;;;5075161;28;20246;-82
2022/06/18 01:44:27;;;;;;;2.83;2.17;;;20.30;60.10;20.80;97152.00;;;;5074767;28;20219;-82
2022/06/18 01:47:03;;;;;;;1.80;1.70;;;20.30;60.20;20.80;97144.00;;;;5071599;28;20240;-82
2022/06/18 01:49:40;;;;;;;1.67;1.57;;;20.30;60.20;20.80;97143.00;;;;5074313;28;20226;-82
2022/06/18 01:52:10;;;;;;;2.13;1.93;;;20.30;60.60;20.80;97144.00;;;;5067694;28;20656;-82
2022/06/18 01:54:47;;;;;;;1.80;1.70;;;20.20;60.40;20.70;97134.00;;;;5075149;28;20273;-82
2022/06/18 01:57:22;;;;;;;2.23;2.13;;;20.20;60.80;20.70;97132.00;;;;5074568;28;20815;-82
2022/06/18 01:59:56;;;;;;;1.90;1.80;;;20.20;60.70;20.60;97129.00;;;;5074104;28;20228;-82
2022/06/18 02:02:23;;;;;;;2.63;1.97;;;20.10;60.90;20.60;97121.00;;;;5073928;28;20223;-82
2022/06/18 02:04:50;;;;;;;4.23;2.17;;;20.10;61.00;20.60;97125.00;;;;5075596;28;20633;-82
2022/06/18 02:07:20;;;;;;;2.10;2.00;;;20.00;61.00;20.60;97131.00;;;;5075313;28;20227;-82
2022/06/18 02:09:57;;;;;;;2.07;1.97;;;20.00;61.10;20.50;97125.00;;;;5075353;28;20196;-82
2022/06/18 02:12:31;;;;;;;2.07;1.90;;;20.00;61.50;20.50;97119.00;;;;5074517;28;20308;-82
2022/06/18 02:15:04;;;;;;;2.90;1.90;;;19.90;61.30;20.50;97116.00;;;;5075190;28;20231;-83
2022/06/18 02:17:34;;;;;;;2.07;1.97;;;19.90;61.20;20.40;97115.00;;;;5074641;28;20212;-82
2022/06/18 02:20:09;;;;;;;4.40;1.87;;;19.90;61.20;20.40;97114.00;;;;5069136;28;20700;-82
2022/06/18 02:22:43;;;;;;;2.70;2.50;;;19.80;61.30;20.30;97112.00;;;;5074061;28;20255;-82
2022/06/18 02:25:13;;;;;;;2.27;1.73;;;19.80;61.60;20.30;97117.00;;;;5066261;28;20233;-82
2022/06/18 02:27:42;;;;;;;2.10;1.90;;;19.80;61.50;20.30;97118.00;;;;5073711;28;22080;-82
2022/06/18 02:30:17;;;;;;;1.73;1.63;;;19.70;61.50;20.20;97116.00;;;;5074440;28;20293;-82
2022/06/18 02:32:59;;;;;;;2.30;2.13;;;19.70;62.10;20.20;97116.00;;;;5072955;28;20220;-82
2022/06/18 02:35:32;;;;;;;2.40;2.03;;;19.70;62.60;20.10;97121.00;;;;5074995;28;20204;-82
2022/06/18 02:38:00;;;;;;;3.50;2.10;;;19.70;62.50;20.10;97120.00;;;;5071135;28;20573;-82
2022/06/18 02:40:32;;;;;;;2.30;1.90;;;19.60;62.30;20.10;97106.00;;;;5065509;28;20212;-82
2022/06/18 02:43:01;;;;;;;2.10;2.00;;;19.60;62.50;20.00;97107.00;;;;5054474;28;20655;-82
2022/06/18 02:45:31;;;;;;;3.03;2.30;;;19.60;62.40;20.00;97108.00;;;;5071463;28;20199;-82
2022/06/18 02:48:01;;;;;;;2.03;1.83;;;19.50;62.50;20.00;97110.00;;;;5074613;28;20219;-82
2022/06/18 02:50:34;;;;;;;2.20;1.87;;;19.50;62.70;19.90;97111.00;;;;5074389;28;20224;-83
2022/06/18 02:53:03;;;;;;;1.90;1.80;;;19.50;62.80;19.90;97108.00;;;;5073356;28;20870;-82
2022/06/18 02:55:39;;;;;;;1.97;1.87;;;19.40;62.80;19.90;97105.00;;;;5063357;28;20274;-82
2022/06/18 02:58:09;;;;;;;2.00;1.90;;;19.40;63.10;19.80;97110.00;;;;5057728;28;20526;-82
2022/06/18 03:00:39;;;;;;;2.20;2.00;;;19.40;63.00;19.80;97108.00;;;;5073057;28;20265;-82
2022/06/18 03:03:10;;;;;;;2.00;1.90;;;19.30;63.10;19.80;97109.00;;;;5073018;28;20227;-82
2022/06/18 03:05:39;;;;;;;1.87;1.77;;;19.30;63.20;19.70;97108.00;;;;5072611;28;20210;-82
2022/06/18 03:08:07;;;;;;;2.27;2.13;;;19.20;63.10;19.70;97105.00;;;;5073138;28;20219;-82
2022/06/18 03:13:22;;;;;;;2.40;2.20;;;19.20;63.40;19.60;97107.00;;;;5071159;28;20277;-82
2022/06/18 03:15:57;;;;;;;2.03;1.93;;;19.20;63.40;19.60;97092.00;;;;5072867;28;20258;-82
2022/06/18 03:18:30;;;;;;;1.97;1.87;;;19.10;63.80;19.60;97104.00;;;;5069713;28;20232;-82
2022/06/18 03:21:06;;;;;;;2.83;2.30;;;19.10;63.80;19.60;97099.00;;;;5067360;28;20307;-82
2022/06/18 03:23:34;;;;;;;2.27;2.07;;;19.10;64.10;19.50;97104.00;;;;5063658;28;20253;-83
2022/06/18 03:26:03;;;;;;;2.83;2.13;;;19.10;64.00;19.50;97097.00;;;;5054448;28;20211;-83
2022/06/18 03:28:32;;;;;;;2.20;2.10;;;19.00;64.20;19.50;97102.00;;;;5075914;28;20220;-83
2022/06/18 03:30:59;;;;;;;2.87;2.67;;;19.00;64.20;19.50;97100.00;;;;5085888;28;20238;-83
2022/06/18 03:33:26;;;;;;;2.40;2.27;;;19.00;64.40;19.50;97097.00;;;;5085890;28;20196;-82
2022/06/18 03:35:54;;;;;;;2.20;2.00;;;19.00;64.40;19.50;97102.00;;;;5087649;28;20218;-83
2022/06/18 03:38:21;;;;;;;2.40;2.20;;;18.90;64.50;19.50;97092.00;;;;5076690;28;20208;-83
2022/06/18 03:40:51;;;;;;;2.17;2.07;;;18.90;64.80;19.50;97099.00;;;;5086680;28;20207;-82
2022/06/18 03:43:21;;;;;;;2.20;2.10;;;18.90;65.00;19.50;97094.00;;;;5076439;28;20666;-82
2022/06/18 03:45:53;;;;;;;2.37;2.17;;;18.90;65.00;19.50;97097.00;;;;5081152;28;20193;-82
2022/06/18 03:48:26;;;;;;;2.67;2.47;;;18.90;65.00;19.50;97098.00;;;;5073712;28;20300;-82
2022/06/18 03:50:53;;;;;;;3.23;2.10;;;18.90;65.20;19.40;97098.00;;;;5072627;28;20251;-83
2022/06/18 03:53:21;;;;;;;2.30;2.20;;;18.90;65.20;19.40;97085.00;;;;5086028;28;20196;-82
2022/06/18 03:55:49;;;;;;;2.60;2.40;;;18.90;65.20;19.40;97085.00;;;;5085200;28;20243;-82
2022/06/18 03:58:17;;;;;;;3.10;2.40;;;18.90;65.50;19.40;97086.00;;;;5085494;28;20196;-83
2022/06/18 04:00:53;;;;;;;2.37;2.27;;;18.90;65.80;19.40;97087.00;;;;5085199;28;20215;-83
2022/06/18 04:03:25;;;;;;;2.40;2.20;;;18.90;65.90;19.40;97088.00;;;;5071272;28;20195;-83
2022/06/18 04:05:53;;;;;;;2.80;2.60;;;18.90;66.10;19.40;97077.00;;;;5082208;28;20585;-83
2022/06/18 04:08:20;;;;;;;2.73;2.53;;;18.80;66.00;19.40;97083.00;;;;5077778;28;20193;-84
2022/06/18 04:10:48;;;;;;;2.50;2.33;;;18.80;66.30;19.40;97078.00;;;;5076343;28;20216;-83
2022/06/18 04:13:16;;;;;;;2.70;2.50;;;18.80;66.30;19.40;97081.00;;;;5076032;28;20192;-83
2022/06/18 04:15:45;;;;;;;5.00;2.60;;;18.80;66.40;19.40;97086.00;;;;5074123;28;20329;-83
2022/06/18 04:18:15;;;;;;;2.17;1.97;;;18.80;66.50;19.40;97082.00;;;;5080782;28;20666;-84
2022/06/18 04:20:43;;;;;;;2.87;2.60;;;18.80;66.70;19.40;97077.00;;;;5082245;28;20326;-83
2022/06/18 04:23:11;;;;;;;3.53;2.50;;;18.80;66.70;19.40;97072.00;;;;5083272;28;20207;-83
2022/06/18 04:25:41;;;;;;;3.33;2.60;;;18.90;67.10;19.50;97076.00;;;;5081298;28;20200;-84
2022/06/18 04:28:10;;;;;;;5.03;2.20;;;18.90;67.30;19.50;97072.00;;;;5082197;28;20219;-83
2022/06/18 04:30:37;;;;;;;3.50;2.37;;;18.90;67.70;19.50;97063.00;;;;5082507;28;20200;-83
2022/06/18 04:33:07;;;;;;;3.20;2.43;;;18.90;67.80;19.50;97067.00;;;;5081696;28;20224;-84
2022/06/18 04:35:35;;;;;;;2.40;2.07;;;18.90;67.90;19.60;97073.00;;;;5073678;28;20212;-83
2022/06/18 04:38:03;;;;;;;2.50;2.30;;;19.00;67.90;19.60;97069.00;;;;5081941;28;20230;-83
2022/06/18 04:40:33;;;;;;;2.37;2.17;;;19.00;67.90;19.70;97076.00;;;;5081048;28;20208;-83
2022/06/18 04:43:01;;;;;;;3.00;2.53;;;19.00;67.90;19.70;97074.00;;;;5082731;28;20196;-83
2022/06/18 04:45:29;;;;;;;2.07;1.97;;;19.10;67.90;19.70;97077.00;;;;5081029;28;20259;-83
2022/06/18 04:47:57;;;;;;;2.50;2.30;;;19.10;67.60;19.80;97076.00;;;;5082389;28;20226;-83
2022/06/18 04:50:30;;;;;;;3.20;2.50;;;19.20;67.50;19.80;97077.00;;;;5078331;28;20254;-83
2022/06/18 04:52:58;;;;;;;1.93;1.80;;;19.20;67.50;19.90;97077.00;;;;5081803;28;20228;-84
2022/06/18 04:55:26;;;;;;;2.80;2.30;;;19.20;67.10;19.90;97077.00;;;;5072488;28;20262;-84
2022/06/18 04:57:54;;;;;;;2.50;2.27;;;19.30;66.90;20.00;97072.00;;;;5081561;28;20250;-84
2022/06/18 05:00:21;;;;;;;2.07;1.97;;;19.40;66.70;20.00;97068.00;;;;5078512;28;20228;-84
2022/06/18 05:02:48;;;;;;;2.30;2.10;;;19.40;66.60;20.10;97072.00;;;;5080018;28;20214;-83
2022/06/18 05:05:19;;;;;;;2.03;1.93;;;19.40;66.50;20.10;97076.00;;;;5080660;28;20208;-83
2022/06/18 05:07:48;;;;;;;2.67;2.00;;;19.50;66.40;20.20;97073.00;;;;5071712;28;20669;-83
2022/06/18 05:10:16;;;;;;;2.30;1.80;;;19.50;65.90;20.20;97075.00;;;;5080370;28;20274;-84
2022/06/18 05:12:46;;;;;;;1.97;1.83;;;19.60;65.70;20.30;97081.00;;;;5101817;22;20321;-87
2022/06/18 05:15:14;;;;;;;2.27;2.07;;;19.60;65.40;20.30;97085.00;;;;5089554;28;20537;-87
2022/06/18 05:17:44;;;;;;;2.10;1.90;;;19.70;65.50;20.40;97087.00;;;;5091123;28;20206;-87
2022/06/18 05:20:17;;;;;;;1.97;1.87;;;19.70;65.30;20.50;97090.00;;;;5101226;28;20186;-87
2022/06/18 05:22:44;;;;;;;2.00;1.90;;;19.80;65.20;20.60;97094.00;;;;5098771;28;20198;-87
2022/06/18 05:25:19;;;;;;;1.90;1.80;;;19.90;65.00;20.60;97093.00;;;;5106682;28;20203;-86
2022/06/18 05:27:48;;;;;;;2.03;1.93;;;20.00;65.10;20.70;97099.00;;;;5081145;28;20195;-86
2022/06/18 05:30:27;;;;;;;2.10;1.90;;;20.00;64.90;20.80;97101.00;;;;5092889;28;20249;-87
2022/06/18 05:32:55;;;;;;;2.87;1.47;;;20.10;65.10;20.80;97101.00;;;;5086448;28;20206;-87
2022/06/18 05:35:32;;;;;;;1.87;1.77;;;20.20;64.70;20.90;97096.00;;;;5086899;28;20227;-86
2022/06/18 05:37:59;;;;;;;2.20;2.00;;;20.20;64.40;21.00;97094.00;;;;5093019;28;20214;-86
2022/06/18 05:40:28;;;;;;;1.87;1.70;;;20.30;64.70;21.10;97095.00;;;;5093501;28;20233;-86
2022/06/18 05:43:01;;;;;;;2.53;1.83;;;20.40;65.00;21.20;97096.00;;;;5107499;28;20255;-85
2022/06/18 05:45:28;;;;;;;2.17;1.97;;;20.40;64.80;21.30;97094.00;;;;5095418;28;20671;-86
2022/06/18 05:47:56;;;;;;;1.87;1.77;;;20.50;64.70;21.30;97092.00;;;;5114918;28;20229;-85
2022/06/18 05:50:26;;;;;;;2.57;1.90;;;20.60;64.60;21.40;97095.00;;;;5088583;28;20568;-86
2022/06/18 05:52:58;;;;;;;2.40;1.70;;;20.60;65.20;21.50;97087.00;;;;5073862;28;20196;-86
2022/06/18 05:55:30;;;;;;;1.93;1.70;;;20.70;64.30;21.50;97093.00;;;;5093933;28;20264;-86
2022/06/18 05:57:59;;;;;;;1.90;1.80;;;20.80;64.30;21.60;97093.00;;;;5095847;28;20679;-85
2022/06/18 06:00:34;;;;;;;1.97;1.87;;;20.80;64.20;21.70;97093.00;;;;5100400;28;20191;-86
2022/06/18 06:03:01;;;;;;;1.80;1.70;;;20.90;64.20;21.70;97099.00;;;;5089762;28;20191;-85
2022/06/18 06:05:29;;;;;;;2.17;2.07;;;20.90;64.00;21.80;97091.00;;;;5101891;28;20659;-86
2022/06/18 06:08:02;;;;;;;1.70;1.53;;;21.00;64.00;21.90;97096.00;;;;5089230;28;20211;-86
2022/06/18 06:13:26;;;;;;;1.83;1.73;;;21.20;63.60;22.00;97104.00;;;;5093697;28;20210;-86
2022/06/18 06:16:02;;;;;;;2.50;2.30;;;21.30;63.60;22.10;97100.00;;;;5094239;28;20303;-86
2022/06/18 06:18:31;;;;;;;1.80;1.70;;;21.30;63.60;22.20;97099.00;;;;5100068;28;20679;-86
2022/06/18 06:21:01;;;;;;;2.33;2.00;;;21.40;63.80;22.30;97098.00;;;;5092652;28;20192;-86
2022/06/18 06:23:31;;;;;;;1.73;1.63;;;21.50;63.80;22.30;97101.00;;;;5106966;28;20204;-86
2022/06/18 06:26:00;;;;;;;2.10;2.00;;;21.50;63.60;22.40;97101.00;;;;5093899;28;20203;-87
2022/06/18 06:28:31;;;;;;;2.40;2.20;;;21.60;63.60;22.50;97093.00;;;;5092973;28;20250;-86
2022/06/18 06:31:01;;;;;;;1.93;1.80;;;21.70;63.60;22.60;97098.00;;;;5092463;28;20198;-86
2022/06/18 06:33:28;;;;;;;2.27;2.10;;;21.80;63.50;22.70;97091.00;;;;5097345;28;20252;-87
2022/06/18 06:35:56;;;;;;;2.00;1.90;;;21.90;63.50;22.80;97104.00;;;;5085802;28;20627;-86
2022/06/18 06:38:23;;;;;;;2.07;1.80;;;22.00;63.40;22.90;97096.00;;;;5092858;28;20706;-86
2022/06/18 06:40:50;;;;;;;1.90;1.77;;;22.10;63.40;23.00;97100.00;;;;5096634;28;20286;-86
2022/06/18 06:43:19;;;;;;;1.77;1.67;;;22.20;63.40;23.10;97095.00;;;;5101266;28;20245;-86
2022/06/18 06:45:47;;;;;;;2.20;2.00;;;22.30;63.30;23.20;97089.00;;;;5093670;28;20226;-87
2022/06/18 06:48:28;;;;;;;2.50;2.30;;;22.40;63.40;23.30;97095.00;;;;5093827;28;20226;-88
2022/06/18 06:50:58;;;;;;;2.77;2.00;;;22.50;63.30;23.40;97092.00;;;;5093688;28;20241;-88
2022/06/18 06:53:28;;;;;;;1.63;1.53;;;22.60;63.20;23.50;97097.00;;;;5093127;28;20226;-88
2022/06/18 06:58:47;;;;;;;1.80;1.70;;;22.80;63.00;23.80;97099.00;;;;5092697;28;20252;-87
2022/06/18 07:01:24;;;;;;;1.87;1.43;;;22.90;62.60;23.90;97091.00;;;;5091134;28;20262;-87
2022/06/18 07:03:54;;;;;;;2.60;1.80;;;23.00;62.80;24.10;97082.00;;;;5092807;28;20675;-87
2022/06/18 07:06:29;;;;;;;2.27;1.63;;;23.10;62.50;24.30;97086.00;;;;5095055;28;20200;-89
2022/06/18 07:08:56;;;;;;;1.67;1.57;;;23.30;62.60;24.50;97090.00;;;;5089163;28;20213;-88
2022/06/18 07:11:33;;;;;;;1.60;1.50;;;23.50;62.60;24.70;97085.00;;;;5109876;28;20214;-88
2022/06/18 07:14:06;;;;;;;1.53;1.43;;;23.60;62.30;24.90;97093.00;;;;5093582;28;20647;-88
2022/06/18 07:16:49;;;;;;;1.60;1.20;;;23.80;62.30;25.20;97088.00;;;;5092870;28;20292;-88
2022/06/18 07:19:22;;;;;;;1.57;1.47;;;24.00;61.30;25.40;97089.00;;;;5087293;28;20278;-88
2022/06/18 07:21:55;;;;;;;2.03;1.20;;;24.20;61.00;25.70;97086.00;;;;5093657;28;20538;-89
2022/06/18 07:24:29;;;;;;;1.43;1.33;;;24.50;60.60;25.90;97080.00;;;;5092541;28;20782;-88
2022/06/18 07:26:56;;;;;;;2.23;1.17;;;24.70;60.10;26.10;97079.00;;;;5078011;28;20187;-89
2022/06/18 07:29:26;;;;;;;2.20;1.30;;;24.90;60.00;26.40;97066.00;;;;5091896;28;20268;-89
2022/06/18 07:31:53;;;;;;;1.50;1.40;;;25.10;60.10;26.60;97061.00;;;;5087322;28;20215;-89
2022/06/18 07:34:20;;;;;;;1.20;1.10;;;25.30;59.90;26.80;97073.00;;;;5092036;28;20199;-89
2022/06/18 07:36:50;;;;;;;1.30;1.20;;;25.50;59.70;27.00;97059.00;;;;5111781;28;20222;-89
2022/06/18 07:39:18;;;;;;;3.10;1.37;;;25.70;59.30;27.20;97065.00;;;;5094044;22;20216;-85
2022/06/18 07:41:54;;;;;;;1.40;1.30;;;25.90;59.00;27.40;97063.00;;;;5078121;28;20183;-85
2022/06/18 07:44:22;;;;;;;1.60;1.50;;;26.00;58.50;27.60;97058.00;;;;5072916;28;20273;-85
2022/06/18 07:46:52;;;;;;;1.70;1.60;;;26.20;58.40;27.80;97062.00;;;;5076283;28;20242;-85
2022/06/18 07:49:20;;;;;;;1.03;1.00;;;26.40;57.40;28.00;97066.00;;;;5062715;28;20220;-86
2022/06/18 07:51:47;;;;;;;1.13;1.10;;;26.60;57.60;28.20;97056.00;;;;5054645;28;20197;-86
2022/06/18 07:54:17;;;;;;;1.53;1.40;;;26.70;57.80;28.40;97054.00;;;;5040978;28;20197;-87
2022/06/18 07:56:44;;;;;;;1.10;1.10;;;26.90;57.60;28.50;97059.00;;;;5049610;28;20274;-87
2022/06/18 07:59:12;;;;;;;1.80;1.20;;;27.10;57.20;28.70;97055.00;;;;5057145;28;20204;-87
2022/06/18 08:01:39;;;;;;;1.13;1.13;;;27.20;56.90;28.90;97052.00;;;;5049940;28;20209;-87
2022/06/18 08:04:08;;;;;;;1.45;1.23;;;27.40;56.90;29.10;97058.00;;;;5047792;28;20196;-86
2022/06/18 08:06:35;;;;;;;1.88;1.20;;;27.60;56.80;29.20;97055.00;;;;5050233;28;20216;-88
2022/06/18 08:09:03;;;;;;;1.38;1.00;;;27.70;56.70;29.40;97055.00;;;;5051221;28;20658;-87
2022/06/18 08:11:31;;;;;;;0.98;0.98;;;27.90;56.20;29.60;97058.00;;;;5051127;28;20220;-86
2022/06/18 08:13:59;;;;;;;1.17;1.10;;;28.10;56.20;29.80;97053.00;;;;5048111;28;20250;-84
2022/06/18 08:16:26;;;;;;;1.75;1.30;;;28.20;56.00;30.00;97052.00;;;;5044634;28;20248;-85
2022/06/18 08:18:53;;;;;;;1.80;1.00;;;28.40;55.50;30.30;97042.00;;;;5051676;28;20307;-88
2022/06/18 08:21:29;;;;;;;1.38;1.27;;;28.60;54.90;30.50;97044.00;;;;5046358;28;20196;-88
2022/06/18 08:24:05;;;;;;;1.38;0.80;;;28.80;54.40;30.80;97042.00;;;;5046635;28;20197;-87
2022/06/18 08:26:34;;;;;;;1.00;0.98;;;29.00;54.10;31.00;97040.00;;;;5044919;28;20200;-86
2022/06/18 08:29:03;;;;;;;1.15;1.00;;;29.20;54.10;31.20;97042.00;;;;5042476;28;20213;-87
2022/06/18 08:31:30;;;;;;;1.00;1.00;;;29.40;53.70;31.40;97042.00;;;;5048142;28;20209;-88
2022/06/18 08:33:58;;;;;;;0.95;0.95;;;29.60;53.40;31.60;97047.00;;;;5048260;28;20291;-87
2022/06/18 08:36:27;;;;;;;1.13;1.00;;;29.80;52.40;31.80;97036.00;;;;5046358;28;20251;-86
2022/06/18 08:38:56;;;;;;;0.90;0.90;;;30.00;51.00;32.00;97033.00;;;;5049417;28;20256;-85
2022/06/18 08:41:49;;;;;;;1.15;0.80;;;30.20;51.10;32.20;97039.00;;;;5046641;28;20197;-87
2022/06/18 08:44:51;;;;;;;1.10;1.00;;;30.40;49.70;32.50;97039.00;;;;5045610;28;20243;-89
2022/06/18 08:47:42;;;;;;;0.98;0.88;;;30.60;49.70;32.70;97033.00;;;;5048696;28;20250;-86
2022/06/18 08:50:29;;;;;;;1.10;0.77;;;30.80;49.70;32.90;97035.00;;;;5042926;28;20264;-88
2022/06/18 08:53:18;;;;;;;0.70;0.70;;;31.00;49.90;33.10;97029.00;;;;5044049;28;20193;-88
2022/06/18 08:55:56;;;;;;;0.93;0.93;;;31.20;49.00;33.40;97037.00;;;;5051930;28;20717;-87
2022/06/18 08:58:33;;;;;;;0.80;0.80;;;31.40;48.90;33.50;97042.00;;;;5050543;28;20315;-86
2022/06/18 09:01:08;;;;;;;1.02;0.80;;;31.50;47.20;33.70;97042.00;;;;5049425;28;20230;-87
2022/06/18 09:03:58;;;;;;;0.70;0.70;;;31.70;48.00;33.90;97042.00;;;;5054498;28;20713;-87
2022/06/18 09:06:49;;;;;;;0.98;0.93;;;31.80;47.00;34.10;97041.00;;;;5053503;28;20583;-85
2022/06/18 09:09:30;;;;;;;0.93;0.80;;;32.00;47.10;34.30;97048.00;;;;5054538;28;20249;-87
2022/06/18 09:12:07;;;;;;;3.80;0.80;;;32.20;46.90;34.50;97037.00;;;;5053821;28;20193;-87
2022/06/18 09:14:46;;;;;;;1.63;0.90;;;32.40;46.40;34.70;97033.00;;;;5047588;28;20750;-86
2022/06/18 09:17:19;;;;;;;0.60;0.60;;;32.60;45.40;34.80;97036.00;;;;5052888;28;20706;-87
2022/06/18 09:19:56;;;;;;;0.75;0.75;;;32.80;45.80;35.00;97032.00;;;;5055227;28;20591;-87
2022/06/18 09:22:26;;;;;;;0.70;0.70;;;33.00;45.80;35.20;97029.00;;;;5053302;28;20196;-87
2022/06/18 09:25:08;;;;;;;0.60;0.60;;;33.10;44.70;35.40;97038.00;;;;5035709;28;20267;-85
2022/06/18 09:27:48;;;;;;;0.73;0.68;;;33.30;44.70;35.60;97037.00;;;;5048505;28;20208;-88
2022/06/18 09:30:21;;;;;;;0.90;0.60;;;33.50;44.40;35.80;97038.00;;;;5049732;28;20236;-87
2022/06/18 09:32:55;;;;;;;2.25;0.90;;;33.70;43.90;35.90;97041.00;;;;5041593;28;20197;-88
2022/06/18 09:35:30;;;;;;;0.73;0.73;;;33.90;43.40;36.20;97037.00;;;;5034383;28;20229;-87
2022/06/18 09:38:03;;;;;;;0.60;0.60;;;34.20;42.90;36.30;97029.00;;;;5022361;28;20206;-88
2022/06/18 09:40:41;;;;;;;3.20;1.17;;;34.40;42.80;36.50;97039.00;;;;5038935;28;20288;-86
2022/06/18 09:43:22;;;;;;;0.73;0.52;;;34.60;42.00;36.70;97028.00;;;;5051948;28;20642;-87
2022/06/18 09:45:55;;;;;;;0.60;0.60;;;34.90;41.30;36.90;97030.00;;;;5051361;28;20220;-88
2022/06/18 09:48:22;;;;;;;0.73;0.73;;;35.20;41.30;37.20;97033.00;;;;5053554;28;20303;-87
2022/06/18 09:50:55;;;;;;;0.60;0.60;;;35.30;40.40;37.30;97024.00;;;;5048817;28;20624;-87
2022/06/18 09:53:28;;;;;;;0.60;0.55;;;35.50;39.70;37.40;97026.00;;;;5052911;28;20212;-84
2022/06/18 09:56:05;;;;;;;0.65;0.65;;;35.70;40.00;37.60;97018.00;;;;5048253;28;20381;-87
2022/06/18 09:58:38;;;;;;;0.93;0.88;;;35.80;40.10;37.70;97013.00;;;;5042460;28;20245;-88
2022/06/18 10:01:09;;;;;;;0.75;0.75;;;36.00;39.20;37.70;97021.00;;;;5046195;28;20224;-89
2022/06/18 10:09:17;;;;;;;0.60;0.60;;;36.20;38.70;37.90;97022.00;;;;5037083;28;20636;-88
2022/06/18 10:11:46;;;;;;;0.85;0.70;;;36.30;39.30;38.00;97011.00;;;;5048528;28;20224;-88
2022/06/18 10:14:20;;;;;;;0.50;0.50;;;36.40;38.70;38.10;97010.00;;;;5053624;28;20646;-88
2022/06/18 10:17:06;;;;;;;0.82;0.82;;;36.50;39.00;38.30;97014.00;;;;5050733;28;20247;-89
2022/06/18 10:19:52;;;;;;;0.70;0.70;;;36.60;37.40;38.30;97006.00;;;;5042763;28;20252;-88
2022/06/18 10:22:33;;;;;;;3.47;0.80;;;36.80;38.50;38.40;97000.00;;;;5056543;28;20200;-88
2022/06/18 10:25:15;;;;;;;1.48;0.57;;;36.90;37.60;38.40;96999.00;;;;5047510;28;20325;-87
2022/06/18 10:27:51;;;;;;;0.60;0.60;;;37.00;36.40;38.40;97000.00;;;;5048473;28;20569;-88
2022/06/18 10:30:30;;;;;;;0.93;0.70;;;37.10;35.90;38.50;96996.00;;;;5047479;28;20236;-87
2022/06/18 10:33:13;;;;;;;0.75;0.75;;;37.30;36.10;38.50;96996.00;;;;5044934;28;20201;-88
2022/06/18 10:36:02;;;;;;;0.70;0.70;;;37.40;36.90;38.50;96986.00;;;;5050238;28;20571;-87
2022/06/18 10:39:03;;;;;;;0.68;0.68;;;37.60;36.50;38.60;96988.00;;;;5046398;28;20229;-87
2022/06/18 10:41:42;;;;;;;0.80;0.80;;;37.80;37.10;38.60;96992.00;;;;5052788;28;20192;-88
2022/06/18 10:44:36;;;;;;;2.33;1.00;;;37.90;36.70;38.60;96996.00;;;;5052595;28;20220;-88
2022/06/18 10:47:08;;;;;;;0.95;0.70;;;38.00;36.40;38.60;96991.00;;;;5049839;28;20217;-87
2022/06/18 10:49:36;;;;;;;0.70;0.70;;;38.10;35.30;38.50;96985.00;;;;5049275;28;20222;-88
2022/06/18 10:52:05;;;;;;;0.75;0.73;;;38.10;34.70;38.50;96985.00;;;;5045674;28;20689;-88
2022/06/18 10:54:37;;;;;;;0.73;0.73;;;38.10;35.30;38.40;96986.00;;;;5055980;28;20586;-87
2022/06/18 10:57:06;;;;;;;1.00;0.85;;;38.10;35.60;38.40;96984.00;;;;5051648;28;20266;-88
2022/06/18 10:59:37;;;;;;;0.57;0.57;;;38.10;35.50;38.30;96977.00;;;;5057607;28;20248;-87
2022/06/18 11:02:22;;;;;;;0.60;0.60;;;38.00;35.50;38.20;96975.00;;;;5056509;28;20220;-87
2022/06/18 11:04:56;;;;;;;1.23;0.75;;;37.90;35.40;38.10;96974.00;;;;5062616;28;20220;-87
2022/06/18 11:07:27;;;;;;;0.70;0.70;;;37.70;35.20;37.90;96970.00;;;;5060505;28;20210;-88
2022/06/18 11:10:02;;;;;;;1.00;0.70;;;37.50;35.10;37.70;96977.00;;;;5055523;28;20208;-86
2022/06/18 11:12:34;;;;;;;1.20;0.70;;;37.30;35.00;37.50;96971.00;;;;5045181;28;20196;-87
2022/06/18 11:15:04;;;;;;;0.55;0.52;;;37.10;34.80;37.20;96971.00;;;;5052945;28;20196;-86
2022/06/18 11:17:36;;;;;;;0.73;0.73;;;36.80;35.00;37.00;96971.00;;;;5052724;28;20227;-88
2022/06/18 11:20:19;;;;;;;0.60;0.60;;;36.50;34.30;36.80;96967.00;;;;5047288;28;20221;-87
2022/06/18 11:22:53;;;;;;;0.50;0.50;;;36.30;34.20;36.60;96964.00;;;;5050104;28;20195;-88
2022/06/18 11:25:33;;;;;;;0.70;0.65;;;36.10;35.20;36.40;96963.00;;;;5051637;28;20704;-86
2022/06/18 11:28:06;;;;;;;0.77;0.77;;;35.90;35.30;36.20;96962.00;;;;5045610;28;20650;-87
2022/06/18 11:30:43;;;;;;;0.65;0.60;;;35.70;35.20;36.10;96955.00;;;;5046222;28;20201;-87
2022/06/18 11:33:26;;;;;;;0.98;0.70;;;35.50;34.70;35.90;96952.00;;;;5050141;28;20199;-88
2022/06/18 11:35:54;;;;;;;1.45;0.95;;;35.30;34.40;35.70;96949.00;;;;5039685;28;20194;-88